^^
Saratoga-Weather Station Historical Data
Daily Summary for September 24, 2021 Units:  Both    English   Metric
Daily Weekly Monthly Yearly Custom
  High: Low: Average:
Temperature: 47.8 °F /  8.8 °C 44.1 °F /  6.7 °C 46.4 °F /  8 °C
Dew Point: 46.4 °F /  8 °C 41 °F /  5 °C 44.8 °F /  7.1 °C
Humidity: 97% 87% 94%
Wind Speed: 4mph /  6.4km/h - 0.9mph /  1.4km/h
Wind Gust: 9mph /  14.5km/h - -
Wind- - West
Pressure: 29.8 in /  1010.5 hPa 29.6 in /  1003.7 hPa -
Precipitation: 0.23 in /  5.8 mm    
Historical Graphs
 
 
Tabular Data for September 24, 2021
Time Temperature Dew Point Pressure Wind Wind Speed Wind Gust Humidity Rainfall Rate (Hourly) solar
00:03 45.1 °F /  7.3 °C 41.5 °F /  5.3 °C 29.8in /  1010.5hPa Calm   2mph /  3.2km/h 87% 0in /  0.0mm 0 W/m2
00:08 44.6 °F /  7 °C 41.2 °F /  5.1 °C 29.8in /  1010.5hPa Calm     88% 0in /  0.0mm 0 W/m2
00:13 44.2 °F /  6.8 °C 41.2 °F /  5.1 °C 29.8in /  1010.5hPa Calm   1mph /  1.6km/h 89% 0in /  0.0mm 0 W/m2
00:18 44.1 °F /  6.7 °C 41 °F /  5 °C 29.8in /  1010.5hPa Calm     89% 0in /  0.0mm 0 W/m2
00:23 44.1 °F /  6.7 °C 41.4 °F /  5.2 °C 29.8in /  1010.5hPa Calm   3mph /  4.8km/h 90% 0in /  0.0mm 0 W/m2
00:28 44.4 °F /  6.9 °C 41.9 °F /  5.5 °C 29.8in /  1010.5hPa Calm   1mph /  1.6km/h 91% 0in /  0.0mm 0 W/m2
00:33 45.1 °F /  7.3 °C 42.6 °F /  5.9 °C 29.8in /  1010.5hPa NW 0.9mph /  1.4km/h 2mph /  3.2km/h 91% 0in /  0.0mm 0 W/m2
00:38 45.9 °F /  7.7 °C 43.2 °F /  6.2 °C 29.8in /  1010.5hPa NW 2mph /  3.2km/h 6mph /  9.7km/h 90% 0in /  0.0mm 0 W/m2
00:43 46.6 °F /  8.1 °C 43.5 °F /  6.4 °C 29.8in /  1010.5hPa NW 4mph /  6.4km/h 4mph /  6.4km/h 89% 0in /  0.0mm 0 W/m2
00:48 47.1 °F /  8.4 °C 43.7 °F /  6.5 °C 29.8in /  1010.5hPa Calm   6mph /  9.7km/h 88% 0in /  0.0mm 0 W/m2
00:53 47.1 °F /  8.4 °C 43.5 °F /  6.4 °C 29.8in /  1010.2hPa NNW 2mph /  3.2km/h 3mph /  4.8km/h 87% 0in /  0.0mm 0 W/m2
00:58 47.3 °F /  8.5 °C 43.7 °F /  6.5 °C 29.8in /  1010.2hPa Calm   4mph /  6.4km/h 87% 0in /  0.0mm 0 W/m2
01:03 47.3 °F /  8.5 °C 43.7 °F /  6.5 °C 29.8in /  1010.2hPa NW 0.9mph /  1.4km/h 9mph /  14.5km/h 87% 0in /  0.0mm 0 W/m2
01:08 47.3 °F /  8.5 °C 43.7 °F /  6.5 °C 29.8in /  1010.2hPa NNW 2.9mph /  4.7km/h 4mph /  6.4km/h 87% 0in /  0.0mm 0 W/m2
01:13 47.3 °F /  8.5 °C 43.7 °F /  6.5 °C 29.8in /  1010.2hPa NW 2mph /  3.2km/h 9mph /  14.5km/h 87% 0in /  0.0mm 0 W/m2
01:18 47.1 °F /  8.4 °C 43.5 °F /  6.4 °C 29.8in /  1010.2hPa Calm   3mph /  4.8km/h 87% 0in /  0.0mm 0 W/m2
01:23 46.9 °F /  8.3 °C 43.5 °F /  6.4 °C 29.8in /  1010.2hPa NW 2mph /  3.2km/h 5mph /  8km/h 88% 0in /  0.0mm 0 W/m2
01:28 46.8 °F /  8.2 °C 43.3 °F /  6.3 °C 29.8in /  1010.2hPa WNW 2.9mph /  4.7km/h 3mph /  4.8km/h 88% 0in /  0.0mm 0 W/m2
01:33 46.6 °F /  8.1 °C 43.5 °F /  6.4 °C 29.8in /  1010.2hPa WSW 0.9mph /  1.4km/h 5mph /  8km/h 89% 0in /  0.0mm 0 W/m2
01:38 46.4 °F /  8 °C 43.7 °F /  6.5 °C 29.8in /  1010.2hPa NW 0.9mph /  1.4km/h 4mph /  6.4km/h 90% 0in /  0.0mm 0 W/m2
01:43 46.2 °F /  7.9 °C 43.5 °F /  6.4 °C 29.8in /  1010.2hPa Calm   2mph /  3.2km/h 90% 0in /  0.0mm 0 W/m2
01:48 46 °F /  7.8 °C 43.5 °F /  6.4 °C 29.8in /  1010.2hPa Calm   4mph /  6.4km/h 91% 0in /  0.0mm 0 W/m2
01:53 45.9 °F /  7.7 °C 43.3 °F /  6.3 °C 29.8in /  1009.8hPa Calm   3mph /  4.8km/h 91% 0in /  0.0mm 0 W/m2
01:58 45.7 °F /  7.6 °C 43.5 °F /  6.4 °C 29.8in /  1009.8hPa WSW 2mph /  3.2km/h 4mph /  6.4km/h 92% 0in /  0.0mm 0 W/m2
02:03 45.7 °F /  7.6 °C 43.5 °F /  6.4 °C 29.8in /  1009.8hPa WNW 4mph /  6.4km/h 6mph /  9.7km/h 92% 0in /  0.0mm 0 W/m2
02:08 45.9 °F /  7.7 °C 43.7 °F /  6.5 °C 29.8in /  1009.8hPa NW 2mph /  3.2km/h 3mph /  4.8km/h 92% 0in /  0.0mm 0 W/m2
02:13 45.9 °F /  7.7 °C 43.7 °F /  6.5 °C 29.8in /  1009.8hPa WNW 2mph /  3.2km/h 3mph /  4.8km/h 92% 0in /  0.0mm 0 W/m2
02:18 45.9 °F /  7.7 °C 43.7 °F /  6.5 °C 29.8in /  1009.8hPa Calm   1mph /  1.6km/h 92% 0in /  0.0mm 0 W/m2
02:23 45.9 °F /  7.7 °C 43.7 °F /  6.5 °C 29.8in /  1009.8hPa Calm   1mph /  1.6km/h 92% 0in /  0.0mm 0 W/m2
02:28 45.9 °F /  7.7 °C 43.7 °F /  6.5 °C 29.8in /  1009.8hPa WSW 2mph /  3.2km/h 3mph /  4.8km/h 92% 0in /  0.0mm 0 W/m2
02:33 45.9 °F /  7.7 °C 43.7 °F /  6.5 °C 29.8in /  1009.5hPa Calm   3mph /  4.8km/h 92% 0in /  0.0mm 0 W/m2
02:38 45.9 °F /  7.7 °C 43.7 °F /  6.5 °C 29.8in /  1009.5hPa WNW 0.9mph /  1.4km/h 5mph /  8km/h 92% 0in /  0.0mm 0 W/m2
02:43 45.9 °F /  7.7 °C 43.7 °F /  6.5 °C 29.8in /  1009.5hPa Calm   1mph /  1.6km/h 92% 0in /  0.0mm 0 W/m2
02:48 45.7 °F /  7.6 °C 43.5 °F /  6.4 °C 29.8in /  1009.5hPa WNW 2.9mph /  4.7km/h 4mph /  6.4km/h 92% 0in /  0.0mm 0 W/m2
02:53 45.7 °F /  7.6 °C 43.5 °F /  6.4 °C 29.8in /  1009.5hPa Calm   1mph /  1.6km/h 92% 0in /  0.0mm 0 W/m2
02:58 45.9 °F /  7.7 °C 43.7 °F /  6.5 °C 29.8in /  1009.5hPa Calm   2mph /  3.2km/h 92% 0in /  0.0mm 0 W/m2
03:03 45.9 °F /  7.7 °C 43.7 °F /  6.5 °C 29.8in /  1009.5hPa Calm   4mph /  6.4km/h 92% 0in /  0.0mm 0 W/m2
03:08 45.9 °F /  7.7 °C 43.7 °F /  6.5 °C 29.8in /  1009.5hPa NW 0.9mph /  1.4km/h 3mph /  4.8km/h 92% 0in /  0.0mm 0 W/m2
03:13 45.9 °F /  7.7 °C 43.7 °F /  6.5 °C 29.8in /  1009.5hPa Calm   4mph /  6.4km/h 92% 0in /  0.0mm 0 W/m2
03:18 46 °F /  7.8 °C 43.9 °F /  6.6 °C 29.8in /  1009.5hPa WSW 2.9mph /  4.7km/h 3mph /  4.8km/h 92% 0in /  0.0mm 0 W/m2
03:23 46 °F /  7.8 °C 43.9 °F /  6.6 °C 29.8in /  1009.5hPa Calm   4mph /  6.4km/h 92% 0in /  0.0mm 0 W/m2
03:28 46 °F /  7.8 °C 43.9 °F /  6.6 °C 29.8in /  1009.1hPa Calm     92% 0in /  0.0mm 0 W/m2
03:33 45.9 °F /  7.7 °C 43.7 °F /  6.5 °C 29.8in /  1009.1hPa WSW 2mph /  3.2km/h 4mph /  6.4km/h 92% 0in /  0.0mm 0 W/m2
03:38 45.9 °F /  7.7 °C 43.7 °F /  6.5 °C 29.8in /  1008.8hPa West 0.9mph /  1.4km/h 2mph /  3.2km/h 92% 0in /  0.0mm 0 W/m2
03:43 45.9 °F /  7.7 °C 43.7 °F /  6.5 °C 29.8in /  1008.8hPa Calm   1mph /  1.6km/h 92% 0in /  0.0mm 0 W/m2
03:48 45.9 °F /  7.7 °C 43.7 °F /  6.5 °C 29.8in /  1009.1hPa Calm   1mph /  1.6km/h 92% 0in /  0.0mm 0 W/m2
03:53 45.7 °F /  7.6 °C 43.7 °F /  6.5 °C 29.8in /  1009.1hPa Calm   2mph /  3.2km/h 93% 0in /  0.0mm 0 W/m2
03:58 45.9 °F /  7.7 °C 43.9 °F /  6.6 °C 29.8in /  1009.1hPa Calm   2mph /  3.2km/h 93% 0in /  0.0mm 0 W/m2
04:03 45.7 °F /  7.6 °C 43.7 °F /  6.5 °C 29.8in /  1008.8hPa SSE 4mph /  6.4km/h 4mph /  6.4km/h 93% 0in /  0.0mm 0 W/m2
04:08 45.9 °F /  7.7 °C 43.9 °F /  6.6 °C 29.8in /  1008.8hPa NW 2mph /  3.2km/h 3mph /  4.8km/h 93% 0in /  0.0mm 0 W/m2
04:13 45.7 °F /  7.6 °C 43.7 °F /  6.5 °C 29.8in /  1008.8hPa NNW 2.9mph /  4.7km/h 3mph /  4.8km/h 93% 0in /  0.0mm 0 W/m2
04:18 45.7 °F /  7.6 °C 43.7 °F /  6.5 °C 29.8in /  1008.8hPa Calm   2mph /  3.2km/h 93% 0in /  0.0mm 0 W/m2
04:23 45.7 °F /  7.6 °C 43.7 °F /  6.5 °C 29.8in /  1008.8hPa Calm   3mph /  4.8km/h 93% 0in /  0.0mm 0 W/m2
04:28 45.7 °F /  7.6 °C 43.7 °F /  6.5 °C 29.8in /  1008.8hPa NW 0.9mph /  1.4km/h 2mph /  3.2km/h 93% 0in /  0.0mm 0 W/m2
04:33 45.9 °F /  7.7 °C 43.9 °F /  6.6 °C 29.8in /  1008.8hPa Calm   4mph /  6.4km/h 93% 0in /  0.0mm 0 W/m2
04:38 45.9 °F /  7.7 °C 43.9 °F /  6.6 °C 29.8in /  1008.8hPa Calm   4mph /  6.4km/h 93% 0in /  0.0mm 0 W/m2
04:43 45.9 °F /  7.7 °C 43.7 °F /  6.5 °C 29.8in /  1008.5hPa Calm   1mph /  1.6km/h 92% 0in /  0.0mm 0 W/m2
04:48 45.9 °F /  7.7 °C 43.7 °F /  6.5 °C 29.8in /  1008.5hPa Calm   3mph /  4.8km/h 92% 0in /  0.0mm 0 W/m2
04:53 45.9 °F /  7.7 °C 43.7 °F /  6.5 °C 29.8in /  1008.5hPa North 2.9mph /  4.7km/h 3mph /  4.8km/h 92% 0in /  0.0mm 0 W/m2
04:58 45.9 °F /  7.7 °C 43.7 °F /  6.5 °C 29.8in /  1008.5hPa West 2mph /  3.2km/h 2mph /  3.2km/h 92% 0in /  0.0mm 0 W/m2
05:03 45.9 °F /  7.7 °C 43.7 °F /  6.5 °C 29.8in /  1008.5hPa North 2.9mph /  4.7km/h 3mph /  4.8km/h 92% 0in /  0.0mm 0 W/m2
05:08 45.9 °F /  7.7 °C 43.7 °F /  6.5 °C 29.8in /  1008.5hPa Calm     92% 0in /  0.0mm 0 W/m2
05:13 45.9 °F /  7.7 °C 43.7 °F /  6.5 °C 29.8in /  1008.5hPa SW 3mph /  4.8km/h 3mph /  4.8km/h 92% 0in /  0.0mm 0 W/m2
05:18 45.7 °F /  7.6 °C 43.5 °F /  6.4 °C 29.8in /  1008.5hPa WNW 0.9mph /  1.4km/h 2mph /  3.2km/h 92% 0in /  0.0mm 0 W/m2
05:23 45.7 °F /  7.6 °C 43.5 °F /  6.4 °C 29.8in /  1008.5hPa Calm   2mph /  3.2km/h 92% 0in /  0.0mm 0 W/m2
05:28 45.7 °F /  7.6 °C 43.5 °F /  6.4 °C 29.8in /  1008.5hPa Calm   1mph /  1.6km/h 92% 0in /  0.0mm 0 W/m2
05:33 45.5 °F /  7.5 °C 43.3 °F /  6.3 °C 29.8in /  1008.5hPa Calm     92% 0in /  0.0mm 0 W/m2
05:38 45.7 °F /  7.6 °C 43.7 °F /  6.5 °C 29.8in /  1008.5hPa WNW 0.9mph /  1.4km/h 3mph /  4.8km/h 93% 0in /  0.0mm 0 W/m2
05:43 45.9 °F /  7.7 °C 43.7 °F /  6.5 °C 29.8in /  1008.5hPa West 4mph /  6.4km/h 4mph /  6.4km/h 92% 0in /  0.0mm 0 W/m2
05:48 45.9 °F /  7.7 °C 43.7 °F /  6.5 °C 29.8in /  1008.1hPa West 4mph /  6.4km/h 7mph /  11.3km/h 92% 0in /  0.0mm 0 W/m2
05:53 46 °F /  7.8 °C 43.9 °F /  6.6 °C 29.8in /  1008.1hPa NNW 2mph /  3.2km/h 3mph /  4.8km/h 92% 0in /  0.0mm 0 W/m2
05:58 46 °F /  7.8 °C 43.9 °F /  6.6 °C 29.8in /  1008.1hPa SSE 0.9mph /  1.4km/h 6mph /  9.7km/h 92% 0in /  0.0mm 0 W/m2
06:03 46 °F /  7.8 °C 43.9 °F /  6.6 °C 29.8in /  1008.1hPa Calm   4mph /  6.4km/h 92% 0in /  0.0mm 0 W/m2
06:08 46 °F /  7.8 °C 43.9 °F /  6.6 °C 29.8in /  1008.1hPa Calm   5mph /  8km/h 92% 0in /  0.0mm 0 W/m2
06:13 46 °F /  7.8 °C 43.9 °F /  6.6 °C 29.8in /  1008.5hPa Calm   5mph /  8km/h 92% 0in /  0.0mm 0 W/m2
06:18 46 °F /  7.8 °C 43.9 °F /  6.6 °C 29.8in /  1008.5hPa SW 2mph /  3.2km/h 5mph /  8km/h 92% 0in /  0.0mm 0 W/m2
06:23 46 °F /  7.8 °C 43.9 °F /  6.6 °C 29.8in /  1008.5hPa West 2.9mph /  4.7km/h 4mph /  6.4km/h 92% 0in /  0.0mm 0 W/m2
06:28 46.2 °F /  7.9 °C 44.1 °F /  6.7 °C 29.8in /  1008.5hPa NW 2mph /  3.2km/h 3mph /  4.8km/h 92% 0in /  0.0mm 0 W/m2
06:33 46.2 °F /  7.9 °C 44.1 °F /  6.7 °C 29.8in /  1008.5hPa NW 2.9mph /  4.7km/h 4mph /  6.4km/h 92% 0in /  0.0mm 0 W/m2
06:38 46.2 °F /  7.9 °C 44.1 °F /  6.7 °C 29.8in /  1008.5hPa NNW 0.9mph /  1.4km/h 3mph /  4.8km/h 92% 0in /  0.0mm 0 W/m2
06:43 46.2 °F /  7.9 °C 44.1 °F /  6.7 °C 29.8in /  1008.5hPa Calm   2mph /  3.2km/h 92% 0in /  0.0mm 0 W/m2
06:48 46 °F /  7.8 °C 43.9 °F /  6.6 °C 29.8in /  1008.5hPa West 0.9mph /  1.4km/h 3mph /  4.8km/h 92% 0in /  0.0mm 0 W/m2
06:53 46 °F /  7.8 °C 43.9 °F /  6.6 °C 29.8in /  1008.1hPa NW 0.9mph /  1.4km/h 3mph /  4.8km/h 92% 0in /  0.0mm 0 W/m2
06:58 46 °F /  7.8 °C 43.9 °F /  6.6 °C 29.8in /  1008.5hPa SW 2mph /  3.2km/h 2mph /  3.2km/h 92% 0in /  0.0mm 0 W/m2
07:03 46 °F /  7.8 °C 43.9 °F /  6.6 °C 29.8in /  1008.5hPa WNW 0.9mph /  1.4km/h 3mph /  4.8km/h 92% 0in /  0.0mm 0 W/m2
07:09 46 °F /  7.8 °C 43.9 °F /  6.6 °C 29.8in /  1008.5hPa Calm   2mph /  3.2km/h 92% 0in /  0.0mm 0 W/m2
07:14 46 °F /  7.8 °C 43.9 °F /  6.6 °C 29.8in /  1008.5hPa SSW 0.9mph /  1.4km/h 4mph /  6.4km/h 92% 0in /  0.0mm 0 W/m2
07:19 46 °F /  7.8 °C 44.1 °F /  6.7 °C 29.8in /  1008.1hPa Calm   1mph /  1.6km/h 93% 0in /  0.0mm 0 W/m2
07:24 45.9 °F /  7.7 °C 43.9 °F /  6.6 °C 29.8in /  1008.1hPa NW 2mph /  3.2km/h 3mph /  4.8km/h 93% 0in /  0.0mm 0 W/m2
07:29 45.9 °F /  7.7 °C 43.9 °F /  6.6 °C 29.8in /  1008.1hPa Calm   4mph /  6.4km/h 93% 0in /  0.0mm 0 W/m2
07:34 45.9 °F /  7.7 °C 43.9 °F /  6.6 °C 29.8in /  1008.1hPa NW 2mph /  3.2km/h 2mph /  3.2km/h 93% 0in /  0.0mm 0 W/m2
07:39 45.9 °F /  7.7 °C 43.9 °F /  6.6 °C 29.8in /  1008.1hPa Calm   4mph /  6.4km/h 93% 0in /  0.0mm 0 W/m2
07:44 45.7 °F /  7.6 °C 43.7 °F /  6.5 °C 29.8in /  1008.1hPa North 0.9mph /  1.4km/h 3mph /  4.8km/h 93% 0in /  0.0mm 0 W/m2
07:49 45.7 °F /  7.6 °C 43.7 °F /  6.5 °C 29.8in /  1008.1hPa WNW 0.9mph /  1.4km/h 2mph /  3.2km/h 93% 0in /  0.0mm 0 W/m2
07:54 45.7 °F /  7.6 °C 43.7 °F /  6.5 °C 29.8in /  1008.1hPa Calm   3mph /  4.8km/h 93% 0in /  0.0mm 0 W/m2
07:59 45.7 °F /  7.6 °C 43.7 °F /  6.5 °C 29.8in /  1008.1hPa Calm     93% 0in /  0.0mm 0 W/m2
08:04 45.7 °F /  7.6 °C 43.7 °F /  6.5 °C 29.8in /  1008.1hPa Calm     93% 0.01in /  0.2mm 0 W/m2
08:09 45.5 °F /  7.5 °C 43.5 °F /  6.4 °C 29.8in /  1008.1hPa Calm   2mph /  3.2km/h 93% 0.01in /  0.2mm 0 W/m2
08:14 45.5 °F /  7.5 °C 43.5 °F /  6.4 °C 29.8in /  1008.1hPa Calm   1mph /  1.6km/h 93% 0.01in /  0.2mm 0 W/m2
08:19 45.3 °F /  7.4 °C 43.7 °F /  6.5 °C 29.8in /  1008.1hPa Calm   2mph /  3.2km/h 94% 0.01in /  0.2mm 0 W/m2
08:24 45.3 °F /  7.4 °C 43.7 °F /  6.5 °C 29.8in /  1008.1hPa Calm   1mph /  1.6km/h 94% 0.01in /  0.2mm 0 W/m2
08:29 45.3 °F /  7.4 °C 43.7 °F /  6.5 °C 29.8in /  1008.1hPa Calm   1mph /  1.6km/h 94% 0.01in /  0.2mm 0 W/m2
08:34 45.3 °F /  7.4 °C 43.7 °F /  6.5 °C 29.8in /  1008.1hPa NW 0.9mph /  1.4km/h 2mph /  3.2km/h 94% 0.01in /  0.2mm 0 W/m2
08:39 45.3 °F /  7.4 °C 43.7 °F /  6.5 °C 29.8in /  1008.1hPa NW 0.9mph /  1.4km/h 5mph /  8km/h 94% 0.01in /  0.2mm 0 W/m2
08:44 45.3 °F /  7.4 °C 43.7 °F /  6.5 °C 29.8in /  1008.1hPa NW 2mph /  3.2km/h 3mph /  4.8km/h 94% 0.01in /  0.2mm 0 W/m2
08:49 45.3 °F /  7.4 °C 43.7 °F /  6.5 °C 29.8in /  1008.1hPa NW 0.9mph /  1.4km/h 4mph /  6.4km/h 94% 0.01in /  0.2mm 0 W/m2
08:54 45.3 °F /  7.4 °C 43.7 °F /  6.5 °C 29.8in /  1008.1hPa Calm     94% 0.01in /  0.2mm 0 W/m2
08:59 45.3 °F /  7.4 °C 43.7 °F /  6.5 °C 29.8in /  1008.1hPa Calm     94% 0.01in /  0.2mm 0 W/m2
09:04 45.1 °F /  7.3 °C 43.5 °F /  6.4 °C 29.8in /  1008.1hPa Calm   2mph /  3.2km/h 94% 0in /  0.0mm 0 W/m2
09:09 45.3 °F /  7.4 °C 43.7 °F /  6.5 °C 29.8in /  1008.1hPa Calm     94% 0in /  0.0mm 5 W/m2
09:14 45.3 °F /  7.4 °C 43.7 °F /  6.5 °C 29.8in /  1008.1hPa Calm     94% 0in /  0.0mm 5 W/m2
09:19 45.1 °F /  7.3 °C 43.5 °F /  6.4 °C 29.8in /  1007.8hPa Calm   2mph /  3.2km/h 94% 0in /  0.0mm 5 W/m2
09:24 45.1 °F /  7.3 °C 43.5 °F /  6.4 °C 29.8in /  1007.8hPa Calm   1mph /  1.6km/h 94% 0in /  0.0mm 5 W/m2
09:29 45.1 °F /  7.3 °C 43.9 °F /  6.6 °C 29.8in /  1007.8hPa ENE 0.9mph /  1.4km/h 3mph /  4.8km/h 95% 0in /  0.0mm 7 W/m2
09:34 45.1 °F /  7.3 °C 43.9 °F /  6.6 °C 29.8in /  1007.8hPa Calm   1mph /  1.6km/h 95% 0in /  0.0mm 9 W/m2
09:39 45.1 °F /  7.3 °C 43.9 °F /  6.6 °C 29.8in /  1007.8hPa Calm   3mph /  4.8km/h 95% 0in /  0.0mm 7 W/m2
09:44 45.1 °F /  7.3 °C 43.9 °F /  6.6 °C 29.8in /  1007.8hPa Calm     95% 0in /  0.0mm 7 W/m2
09:49 45.1 °F /  7.3 °C 43.9 °F /  6.6 °C 29.8in /  1007.8hPa North 0.9mph /  1.4km/h 2mph /  3.2km/h 95% 0in /  0.0mm 9 W/m2
09:54 45.1 °F /  7.3 °C 43.9 °F /  6.6 °C 29.8in /  1007.8hPa Calm   2mph /  3.2km/h 95% 0in /  0.0mm 11 W/m2
09:59 45.3 °F /  7.4 °C 44.1 °F /  6.7 °C 29.8in /  1007.8hPa Calm   1mph /  1.6km/h 95% 0in /  0.0mm 12 W/m2
10:04 45.3 °F /  7.4 °C 44.1 °F /  6.7 °C 29.8in /  1007.8hPa Calm     95% 0in /  0.0mm 12 W/m2
10:09 45.3 °F /  7.4 °C 44.1 °F /  6.7 °C 29.8in /  1007.8hPa Calm   4mph /  6.4km/h 95% 0in /  0.0mm 12 W/m2
10:14 45.3 °F /  7.4 °C 44.1 °F /  6.7 °C 29.8in /  1007.5hPa Calm     95% 0in /  0.0mm 14 W/m2
10:19 45.3 °F /  7.4 °C 44.1 °F /  6.7 °C 29.8in /  1007.8hPa Calm   4mph /  6.4km/h 95% 0in /  0.0mm 14 W/m2
10:24 45.5 °F /  7.5 °C 44.2 °F /  6.8 °C 29.8in /  1007.8hPa Calm   1mph /  1.6km/h 95% 0in /  0.0mm 14 W/m2
10:29 45.5 °F /  7.5 °C 44.2 °F /  6.8 °C 29.8in /  1007.5hPa Calm   3mph /  4.8km/h 95% 0in /  0.0mm 18 W/m2
10:34 45.5 °F /  7.5 °C 44.2 °F /  6.8 °C 29.8in /  1007.8hPa Calm   1mph /  1.6km/h 95% 0in /  0.0mm 16 W/m2
10:39 45.7 °F /  7.6 °C 44.4 °F /  6.9 °C 29.8in /  1007.5hPa Calm   2mph /  3.2km/h 95% 0in /  0.0mm 14 W/m2
10:44 45.7 °F /  7.6 °C 44.4 °F /  6.9 °C 29.8in /  1007.5hPa West 2.9mph /  4.7km/h 6mph /  9.7km/h 95% 0in /  0.0mm 25 W/m2
10:49 45.7 °F /  7.6 °C 44.6 °F /  7 °C 29.8in /  1007.5hPa WSW 0.9mph /  1.4km/h 4mph /  6.4km/h 96% 0in /  0.0mm 25 W/m2
10:54 45.9 °F /  7.7 °C 44.8 °F /  7.1 °C 29.8in /  1007.5hPa WNW 0.9mph /  1.4km/h 2mph /  3.2km/h 96% 0in /  0.0mm 28 W/m2
10:59 45.9 °F /  7.7 °C 44.8 °F /  7.1 °C 29.8in /  1007.5hPa NW 0.9mph /  1.4km/h 5mph /  8km/h 96% 0in /  0.0mm 33 W/m2
11:04 45.9 °F /  7.7 °C 44.8 °F /  7.1 °C 29.8in /  1007.5hPa NNW 2mph /  3.2km/h 3mph /  4.8km/h 96% 0in /  0.0mm 33 W/m2
11:09 46 °F /  7.8 °C 45 °F /  7.2 °C 29.8in /  1007.5hPa WNW 0.9mph /  1.4km/h 5mph /  8km/h 96% 0in /  0.0mm 21 W/m2
11:14 46 °F /  7.8 °C 45 °F /  7.2 °C 29.8in /  1007.5hPa WNW 2mph /  3.2km/h 3mph /  4.8km/h 96% 0in /  0.0mm 14 W/m2
11:19 46 °F /  7.8 °C 45 °F /  7.2 °C 29.8in /  1007.5hPa Calm   4mph /  6.4km/h 96% 0in /  0.0mm 14 W/m2
11:24 46 °F /  7.8 °C 45 °F /  7.2 °C 29.7in /  1007.1hPa Calm     96% 0in /  0.0mm 12 W/m2
11:29 46 °F /  7.8 °C 45 °F /  7.2 °C 29.7in /  1007.1hPa Calm   2mph /  3.2km/h 96% 0in /  0.0mm 19 W/m2
11:34 46.2 °F /  7.9 °C 45.1 °F /  7.3 °C 29.7in /  1007.1hPa WNW 2mph /  3.2km/h 4mph /  6.4km/h 96% 0in /  0.0mm 18 W/m2
11:39 46.2 °F /  7.9 °C 45.1 °F /  7.3 °C 29.7in /  1007.1hPa NW 2.9mph /  4.7km/h 3mph /  4.8km/h 96% 0in /  0.0mm 21 W/m2
11:44 46.2 °F /  7.9 °C 45.1 °F /  7.3 °C 29.7in /  1007.1hPa NW 0.9mph /  1.4km/h 3mph /  4.8km/h 96% 0.01in /  0.2mm 21 W/m2
11:49 46.4 °F /  8 °C 45 °F /  7.2 °C 29.7in /  1007.1hPa Calm   4mph /  6.4km/h 95% 0.02in /  0.5mm 30 W/m2
11:54 46.4 °F /  8 °C 45 °F /  7.2 °C 29.7in /  1007.1hPa Calm   2mph /  3.2km/h 95% 0.03in /  0.8mm 39 W/m2
11:59 46.4 °F /  8 °C 45 °F /  7.2 °C 29.7in /  1006.8hPa NW 0.9mph /  1.4km/h 3mph /  4.8km/h 95% 0.03in /  0.8mm 44 W/m2
12:04 46.6 °F /  8.1 °C 45.1 °F /  7.3 °C 29.7in /  1007.1hPa West 2mph /  3.2km/h 5mph /  8km/h 95% 0.04in /  1.0mm 65 W/m2
12:09 46.8 °F /  8.2 °C 45.7 °F /  7.6 °C 29.7in /  1006.8hPa NW 2mph /  3.2km/h 4mph /  6.4km/h 96% 0.05in /  1.3mm 111 W/m2
12:14 46.8 °F /  8.2 °C 45.7 °F /  7.6 °C 29.7in /  1006.8hPa NW 2mph /  3.2km/h 5mph /  8km/h 96% 0.05in /  1.3mm 144 W/m2
12:19 46.9 °F /  8.3 °C 45.5 °F /  7.5 °C 29.7in /  1006.8hPa WNW 2mph /  3.2km/h 3mph /  4.8km/h 95% 0.05in /  1.3mm 104 W/m2
12:24 47.1 °F /  8.4 °C 45.7 °F /  7.6 °C 29.7in /  1006.4hPa West 0.9mph /  1.4km/h 3mph /  4.8km/h 95% 0.05in /  1.3mm 90 W/m2
12:29 47.1 °F /  8.4 °C 45.7 °F /  7.6 °C 29.7in /  1006.4hPa ENE 2mph /  3.2km/h 2mph /  3.2km/h 95% 0.06in /  1.5mm 81 W/m2
12:34 47.3 °F /  8.5 °C 45.9 °F /  7.7 °C 29.7in /  1006.4hPa WSW 2mph /  3.2km/h 3mph /  4.8km/h 95% 0.06in /  1.5mm 70 W/m2
12:39 47.5 °F /  8.6 °C 46 °F /  7.8 °C 29.7in /  1006.4hPa SW 0.9mph /  1.4km/h 4mph /  6.4km/h 95% 0.06in /  1.5mm 84 W/m2
12:44 47.5 °F /  8.6 °C 46 °F /  7.8 °C 29.7in /  1006.4hPa Calm   7mph /  11.3km/h 95% 0.05in /  1.3mm 47 W/m2
12:49 47.5 °F /  8.6 °C 46 °F /  7.8 °C 29.7in /  1006.4hPa NW 0.9mph /  1.4km/h 3mph /  4.8km/h 95% 0.04in /  1.0mm 26 W/m2
12:54 47.3 °F /  8.5 °C 45.9 °F /  7.7 °C 29.7in /  1006.1hPa West 0.9mph /  1.4km/h 7mph /  11.3km/h 95% 0.03in /  0.8mm 25 W/m2
12:59 47.3 °F /  8.5 °C 45.9 °F /  7.7 °C 29.7in /  1006.1hPa Calm   3mph /  4.8km/h 95% 0.05in /  1.3mm 97 W/m2
13:04 47.5 °F /  8.6 °C 46 °F /  7.8 °C 29.7in /  1006.1hPa WSW 2mph /  3.2km/h 4mph /  6.4km/h 95% 0.05in /  1.3mm 125 W/m2
13:09 47.5 °F /  8.6 °C 46 °F /  7.8 °C 29.7in /  1006.1hPa NW 0.9mph /  1.4km/h 2mph /  3.2km/h 95% 0.04in /  1.0mm 72 W/m2
13:14 47.5 °F /  8.6 °C 46 °F /  7.8 °C 29.7in /  1006.1hPa WNW 2.9mph /  4.7km/h 7mph /  11.3km/h 95% 0.04in /  1.0mm 83 W/m2
13:19 47.5 °F /  8.6 °C 46 °F /  7.8 °C 29.7in /  1006.1hPa WNW 2.9mph /  4.7km/h 3mph /  4.8km/h 95% 0.05in /  1.3mm 79 W/m2
13:24 47.5 °F /  8.6 °C 46 °F /  7.8 °C 29.7in /  1005.8hPa WNW 2mph /  3.2km/h 7mph /  11.3km/h 95% 0.05in /  1.3mm 53 W/m2
13:29 47.5 °F /  8.6 °C 46 °F /  7.8 °C 29.7in /  1005.8hPa WNW 2mph /  3.2km/h 5mph /  8km/h 95% 0.04in /  1.0mm 60 W/m2
13:34 47.5 °F /  8.6 °C 46 °F /  7.8 °C 29.7in /  1005.8hPa SW 2mph /  3.2km/h 3mph /  4.8km/h 95% 0.04in /  1.0mm 70 W/m2
13:39 47.5 °F /  8.6 °C 46 °F /  7.8 °C 29.7in /  1005.8hPa WNW 2mph /  3.2km/h 4mph /  6.4km/h 95% 0.04in /  1.0mm 56 W/m2
13:44 47.7 °F /  8.7 °C 46.2 °F /  7.9 °C 29.7in /  1005.8hPa West 2mph /  3.2km/h 6mph /  9.7km/h 95% 0.05in /  1.3mm 79 W/m2
13:49 47.7 °F /  8.7 °C 46.2 °F /  7.9 °C 29.7in /  1005.8hPa WNW 0.9mph /  1.4km/h 2mph /  3.2km/h 95% 0.06in /  1.5mm 113 W/m2
13:54 47.7 °F /  8.7 °C 46.2 °F /  7.9 °C 29.7in /  1005.8hPa Calm   2mph /  3.2km/h 95% 0.06in /  1.5mm 90 W/m2
14:00 47.7 °F /  8.7 °C 46.2 °F /  7.9 °C 29.7in /  1005.4hPa WSW 0.9mph /  1.4km/h 2mph /  3.2km/h 95% 0.04in /  1.0mm 60 W/m2
14:05 47.8 °F /  8.8 °C 46.4 °F /  8 °C 29.7in /  1005.4hPa WNW 2.9mph /  4.7km/h 3mph /  4.8km/h 95% 0.03in /  0.8mm 51 W/m2
14:10 47.8 °F /  8.8 °C 46.4 °F /  8 °C 29.7in /  1005.4hPa NW 2mph /  3.2km/h 3mph /  4.8km/h 95% 0.03in /  0.8mm 44 W/m2
14:15 47.8 °F /  8.8 °C 46.4 °F /  8 °C 29.7in /  1005.4hPa NW 0.9mph /  1.4km/h 2mph /  3.2km/h 95% 0.04in /  1.0mm 49 W/m2
14:20 47.8 °F /  8.8 °C 46.4 °F /  8 °C 29.7in /  1005.4hPa Calm   3mph /  4.8km/h 95% 0.03in /  0.8mm 39 W/m2
14:25 47.8 °F /  8.8 °C 46.4 °F /  8 °C 29.7in /  1005.4hPa NNW 0.9mph /  1.4km/h 2mph /  3.2km/h 95% 0.03in /  0.8mm 37 W/m2
14:30 47.8 °F /  8.8 °C 46.4 °F /  8 °C 29.7in /  1005.4hPa SW 2mph /  3.2km/h 3mph /  4.8km/h 95% 0.03in /  0.8mm 42 W/m2
14:35 47.8 °F /  8.8 °C 46.4 °F /  8 °C 29.7in /  1005.4hPa WSW 2.9mph /  4.7km/h 3mph /  4.8km/h 95% 0.03in /  0.8mm 46 W/m2
14:40 47.8 °F /  8.8 °C 46.4 °F /  8 °C 29.7in /  1005.4hPa SE 0.9mph /  1.4km/h 4mph /  6.4km/h 95% 0.03in /  0.8mm 33 W/m2
14:45 47.8 °F /  8.8 °C 46.4 °F /  8 °C 29.7in /  1005.1hPa Calm   1mph /  1.6km/h 95% 0.02in /  0.5mm 39 W/m2
14:50 47.8 °F /  8.8 °C 46.4 °F /  8 °C 29.7in /  1005.4hPa West 2.9mph /  4.7km/h 7mph /  11.3km/h 95% 0.02in /  0.5mm 44 W/m2
14:55 47.8 °F /  8.8 °C 46.4 °F /  8 °C 29.7in /  1005.4hPa NW 2mph /  3.2km/h 2mph /  3.2km/h 95% 0.01in /  0.2mm 30 W/m2
15:00 47.8 °F /  8.8 °C 46.4 °F /  8 °C 29.7in /  1005.4hPa West 2mph /  3.2km/h 3mph /  4.8km/h 95% 0.02in /  0.5mm 26 W/m2
15:05 47.8 °F /  8.8 °C 46.4 °F /  8 °C 29.7in /  1005.1hPa WNW 2mph /  3.2km/h 2mph /  3.2km/h 95% 0.02in /  0.5mm 19 W/m2
15:10 47.8 °F /  8.8 °C 46.4 °F /  8 °C 29.7in /  1005.1hPa Calm   2mph /  3.2km/h 95% 0.02in /  0.5mm 25 W/m2
15:15 47.8 °F /  8.8 °C 46.4 °F /  8 °C 29.7in /  1005.1hPa Calm   1mph /  1.6km/h 95% 0.01in /  0.2mm 21 W/m2
15:20 47.8 °F /  8.8 °C 46.4 °F /  8 °C 29.7in /  1005.1hPa Calm   1mph /  1.6km/h 95% 0.01in /  0.2mm 25 W/m2
15:25 47.8 °F /  8.8 °C 46.4 °F /  8 °C 29.7in /  1005.1hPa NNW 2.9mph /  4.7km/h 3mph /  4.8km/h 95% 0.02in /  0.5mm 18 W/m2
15:30 47.8 °F /  8.8 °C 46.4 °F /  8 °C 29.7in /  1005.1hPa Calm     95% 0.02in /  0.5mm 14 W/m2
15:35 47.8 °F /  8.8 °C 46.4 °F /  8 °C 29.7in /  1005.1hPa Calm     95% 0.02in /  0.5mm 11 W/m2
15:40 47.8 °F /  8.8 °C 46.4 °F /  8 °C 29.7in /  1005.1hPa Calm   3mph /  4.8km/h 95% 0.02in /  0.5mm 7 W/m2
15:45 47.8 °F /  8.8 °C 46.4 °F /  8 °C 29.7in /  1005.1hPa Calm   2mph /  3.2km/h 95% 0.02in /  0.5mm 9 W/m2
15:50 47.8 °F /  8.8 °C 46.4 °F /  8 °C 29.7in /  1005.1hPa SW 0.9mph /  1.4km/h 3mph /  4.8km/h 95% 0.02in /  0.5mm 12 W/m2
15:55 47.8 °F /  8.8 °C 46.4 °F /  8 °C 29.7in /  1005.1hPa SW 0.9mph /  1.4km/h 2mph /  3.2km/h 95% 0.02in /  0.5mm 9 W/m2
16:00 47.8 °F /  8.8 °C 46.4 °F /  8 °C 29.7in /  1005.1hPa SW 2mph /  3.2km/h 7mph /  11.3km/h 95% 0.01in /  0.2mm 7 W/m2
16:05 47.8 °F /  8.8 °C 46.4 °F /  8 °C 29.7in /  1005.1hPa Calm   2mph /  3.2km/h 95% 0.01in /  0.2mm 7 W/m2
16:10 47.8 °F /  8.8 °C 46.4 °F /  8 °C 29.7in /  1005.1hPa NW 2mph /  3.2km/h 4mph /  6.4km/h 95% 0.01in /  0.2mm 9 W/m2
16:15 47.8 °F /  8.8 °C 46.4 °F /  8 °C 29.7in /  1005.1hPa Calm   2mph /  3.2km/h 95% 0.02in /  0.5mm 9 W/m2
16:20 47.8 °F /  8.8 °C 46.4 °F /  8 °C 29.7in /  1005.1hPa Calm     95% 0.02in /  0.5mm 7 W/m2
16:25 47.8 °F /  8.8 °C 46.4 °F /  8 °C 29.7in /  1005.1hPa NNW 0.9mph /  1.4km/h 2mph /  3.2km/h 95% 0.02in /  0.5mm 0 W/m2
16:30 47.8 °F /  8.8 °C 46.4 °F /  8 °C 29.7in /  1005.1hPa WNW 0.9mph /  1.4km/h 1mph /  1.6km/h 95% 0.02in /  0.5mm 0 W/m2
16:35 47.8 °F /  8.8 °C 46.4 °F /  8 °C 29.7in /  1005.1hPa West 4mph /  6.4km/h 4mph /  6.4km/h 95% 0.02in /  0.5mm 0 W/m2
16:40 47.8 °F /  8.8 °C 46.4 °F /  8 °C 29.7in /  1005.1hPa WNW 4mph /  6.4km/h 4mph /  6.4km/h 95% 0.02in /  0.5mm 0 W/m2
16:45 47.8 °F /  8.8 °C 46.4 °F /  8 °C 29.7in /  1005.1hPa West 0.9mph /  1.4km/h 3mph /  4.8km/h 95% 0.02in /  0.5mm 0 W/m2
16:50 47.8 °F /  8.8 °C 46.4 °F /  8 °C 29.7in /  1005.1hPa Calm     95% 0.02in /  0.5mm 0 W/m2
16:55 47.8 °F /  8.8 °C 46.4 °F /  8 °C 29.7in /  1005.1hPa Calm   1mph /  1.6km/h 95% 0.02in /  0.5mm 0 W/m2
17:00 47.7 °F /  8.7 °C 46.2 °F /  7.9 °C 29.7in /  1005.1hPa Calm   2mph /  3.2km/h 95% 0.02in /  0.5mm 0 W/m2
17:05 47.7 °F /  8.7 °C 46.2 °F /  7.9 °C 29.7in /  1005.1hPa Calm   2mph /  3.2km/h 95% 0.02in /  0.5mm 0 W/m2
17:10 47.7 °F /  8.7 °C 46.2 °F /  7.9 °C 29.7in /  1005.1hPa West 0.9mph /  1.4km/h 3mph /  4.8km/h 95% 0.02in /  0.5mm 0 W/m2
17:15 47.7 °F /  8.7 °C 46.2 °F /  7.9 °C 29.7in /  1005.1hPa NW 0.9mph /  1.4km/h 4mph /  6.4km/h 95% 0.02in /  0.5mm 0 W/m2
17:20 47.7 °F /  8.7 °C 46.2 °F /  7.9 °C 29.7in /  1005.1hPa West 2.9mph /  4.7km/h 4mph /  6.4km/h 95% 0.03in /  0.8mm 0 W/m2
17:25 47.7 °F /  8.7 °C 46.2 °F /  7.9 °C 29.7in /  1005.1hPa West 2mph /  3.2km/h 3mph /  4.8km/h 95% 0.04in /  1.0mm 0 W/m2
17:30 47.5 °F /  8.6 °C 46 °F /  7.8 °C 29.7in /  1005.1hPa Calm   2mph /  3.2km/h 95% 0.04in /  1.0mm 0 W/m2
17:35 47.5 °F /  8.6 °C 46 °F /  7.8 °C 29.7in /  1005.1hPa West 0.9mph /  1.4km/h 3mph /  4.8km/h 95% 0.05in /  1.3mm 0 W/m2
17:40 47.5 °F /  8.6 °C 46.4 °F /  8 °C 29.7in /  1005.1hPa Calm   3mph /  4.8km/h 96% 0.06in /  1.5mm 0 W/m2
17:45 47.5 °F /  8.6 °C 46.4 °F /  8 °C 29.7in /  1005.1hPa West 2mph /  3.2km/h 6mph /  9.7km/h 96% 0.06in /  1.5mm 0 W/m2
17:50 47.5 °F /  8.6 °C 46.4 °F /  8 °C 29.7in /  1004.7hPa West 0.9mph /  1.4km/h 2mph /  3.2km/h 96% 0.06in /  1.5mm 0 W/m2
17:55 47.3 °F /  8.5 °C 46.2 °F /  7.9 °C 29.7in /  1004.7hPa Calm   6mph /  9.7km/h 96% 0.06in /  1.5mm 0 W/m2
18:01 47.1 °F /  8.4 °C 46 °F /  7.8 °C 29.7in /  1004.7hPa Calm   1mph /  1.6km/h 96% 0.06in /  1.5mm 0 W/m2
18:06 47.1 °F /  8.4 °C 46 °F /  7.8 °C 29.7in /  1004.7hPa Calm   1mph /  1.6km/h 96% 0.06in /  1.5mm 0 W/m2
18:11 47.1 °F /  8.4 °C 46 °F /  7.8 °C 29.7in /  1004.7hPa Calm     96% 0.06in /  1.5mm 0 W/m2
18:16 47.1 °F /  8.4 °C 46 °F /  7.8 °C 29.7in /  1004.7hPa Calm     96% 0.05in /  1.3mm 0 W/m2
18:21 47.1 °F /  8.4 °C 46 °F /  7.8 °C 29.7in /  1004.7hPa West 0.9mph /  1.4km/h 2mph /  3.2km/h 96% 0.04in /  1.0mm 0 W/m2
18:26 47.1 °F /  8.4 °C 46 °F /  7.8 °C 29.7in /  1004.7hPa Calm     96% 0.02in /  0.5mm 0 W/m2
18:31 47.1 °F /  8.4 °C 46 °F /  7.8 °C 29.7in /  1004.7hPa WSW 2.9mph /  4.7km/h 5mph /  8km/h 96% 0.02in /  0.5mm 0 W/m2
18:36 47.1 °F /  8.4 °C 46 °F /  7.8 °C 29.7in /  1004.7hPa West 2mph /  3.2km/h 2mph /  3.2km/h 96% 0.02in /  0.5mm 0 W/m2
18:41 47.1 °F /  8.4 °C 46 °F /  7.8 °C 29.7in /  1004.7hPa West 2mph /  3.2km/h 3mph /  4.8km/h 96% 0.01in /  0.2mm 0 W/m2
18:46 47.1 °F /  8.4 °C 46 °F /  7.8 °C 29.7in /  1004.7hPa Calm   3mph /  4.8km/h 96% 0.01in /  0.2mm 0 W/m2
18:51 47.1 °F /  8.4 °C 46 °F /  7.8 °C 29.7in /  1004.7hPa West 0.9mph /  1.4km/h 1mph /  1.6km/h 96% 0.01in /  0.2mm 0 W/m2
18:56 47.1 °F /  8.4 °C 46 °F /  7.8 °C 29.7in /  1005.1hPa WNW 2mph /  3.2km/h 6mph /  9.7km/h 96% 0.01in /  0.2mm 0 W/m2
19:01 47.1 °F /  8.4 °C 46 °F /  7.8 °C 29.7in /  1005.1hPa West 2.9mph /  4.7km/h 3mph /  4.8km/h 96% 0in /  0.0mm 0 W/m2
19:06 47.1 °F /  8.4 °C 46 °F /  7.8 °C 29.7in /  1005.1hPa WSW 0.9mph /  1.4km/h 4mph /  6.4km/h 96% 0in /  0.0mm 0 W/m2
19:11 47.1 °F /  8.4 °C 46 °F /  7.8 °C 29.7in /  1005.1hPa NW 2mph /  3.2km/h 4mph /  6.4km/h 96% 0in /  0.0mm 0 W/m2
19:16 47.1 °F /  8.4 °C 46 °F /  7.8 °C 29.7in /  1004.7hPa West 2mph /  3.2km/h 7mph /  11.3km/h 96% 0in /  0.0mm 0 W/m2
19:21 47.1 °F /  8.4 °C 46 °F /  7.8 °C 29.7in /  1004.7hPa West 2mph /  3.2km/h 2mph /  3.2km/h 96% 0in /  0.0mm 0 W/m2
19:26 46.9 °F /  8.3 °C 45.9 °F /  7.7 °C 29.7in /  1004.7hPa West 2mph /  3.2km/h 6mph /  9.7km/h 96% 0in /  0.0mm 0 W/m2
19:31 46.9 °F /  8.3 °C 45.9 °F /  7.7 °C 29.7in /  1004.7hPa West 0.9mph /  1.4km/h 3mph /  4.8km/h 96% 0in /  0.0mm 0 W/m2
19:36 47.1 °F /  8.4 °C 46 °F /  7.8 °C 29.7in /  1004.7hPa Calm   4mph /  6.4km/h 96% 0in /  0.0mm 0 W/m2
19:41 46.9 °F /  8.3 °C 45.9 °F /  7.7 °C 29.7in /  1004.7hPa Calm     96% 0in /  0.0mm 0 W/m2
19:46 46.9 °F /  8.3 °C 45.9 °F /  7.7 °C 29.7in /  1004.7hPa Calm   2mph /  3.2km/h 96% 0in /  0.0mm 0 W/m2
19:51 46.9 °F /  8.3 °C 45.9 °F /  7.7 °C 29.7in /  1004.7hPa Calm     96% 0in /  0.0mm 0 W/m2
19:56 46.9 °F /  8.3 °C 45.9 °F /  7.7 °C 29.7in /  1004.7hPa WNW 0.9mph /  1.4km/h 1mph /  1.6km/h 96% 0in /  0.0mm 0 W/m2
20:01 46.9 °F /  8.3 °C 45.9 °F /  7.7 °C 29.7in /  1004.7hPa Calm   2mph /  3.2km/h 96% 0in /  0.0mm 0 W/m2
20:06 46.9 °F /  8.3 °C 45.9 °F /  7.7 °C 29.7in /  1004.7hPa Calm   1mph /  1.6km/h 96% 0in /  0.0mm 0 W/m2
20:11 46.9 °F /  8.3 °C 45.9 °F /  7.7 °C 29.7in /  1004.7hPa WNW 0.9mph /  1.4km/h 2mph /  3.2km/h 96% 0in /  0.0mm 0 W/m2
20:16 46.9 °F /  8.3 °C 45.9 °F /  7.7 °C 29.7in /  1004.7hPa Calm   1mph /  1.6km/h 96% 0in /  0.0mm 0 W/m2
20:21 46.9 °F /  8.3 °C 45.9 °F /  7.7 °C 29.7in /  1004.7hPa Calm     96% 0in /  0.0mm 0 W/m2
20:26 46.8 °F /  8.2 °C 45.7 °F /  7.6 °C 29.7in /  1004.7hPa Calm     96% 0in /  0.0mm 0 W/m2
20:31 46.8 °F /  8.2 °C 45.7 °F /  7.6 °C 29.7in /  1004.7hPa Calm     96% 0in /  0.0mm 0 W/m2
20:36 46.8 °F /  8.2 °C 45.7 °F /  7.6 °C 29.7in /  1004.7hPa Calm   1mph /  1.6km/h 96% 0in /  0.0mm 0 W/m2
20:41 46.8 °F /  8.2 °C 45.7 °F /  7.6 °C 29.7in /  1004.7hPa Calm     96% 0in /  0.0mm 0 W/m2
20:46 46.8 °F /  8.2 °C 45.7 °F /  7.6 °C 29.7in /  1004.7hPa Calm   1mph /  1.6km/h 96% 0in /  0.0mm 0 W/m2
20:51 46.8 °F /  8.2 °C 45.7 °F /  7.6 °C 29.7in /  1004.7hPa Calm   2mph /  3.2km/h 96% 0in /  0.0mm 0 W/m2
20:56 46.8 °F /  8.2 °C 45.7 °F /  7.6 °C 29.7in /  1004.7hPa NW 2mph /  3.2km/h 2mph /  3.2km/h 96% 0in /  0.0mm 0 W/m2
21:01 46.8 °F /  8.2 °C 45.7 °F /  7.6 °C 29.7in /  1004.7hPa Calm   1mph /  1.6km/h 96% 0in /  0.0mm 0 W/m2
21:06 46.8 °F /  8.2 °C 45.7 °F /  7.6 °C 29.7in /  1004.7hPa Calm   1mph /  1.6km/h 96% 0in /  0.0mm 0 W/m2
21:11 46.8 °F /  8.2 °C 45.7 °F /  7.6 °C 29.7in /  1004.7hPa NW 0.9mph /  1.4km/h 2mph /  3.2km/h 96% 0in /  0.0mm 0 W/m2
21:16 46.8 °F /  8.2 °C 45.7 °F /  7.6 °C 29.7in /  1004.7hPa NW 0.9mph /  1.4km/h 1mph /  1.6km/h 96% 0in /  0.0mm 0 W/m2
21:21 46.8 °F /  8.2 °C 45.7 °F /  7.6 °C 29.7in /  1004.7hPa NW 2mph /  3.2km/h 3mph /  4.8km/h 96% 0in /  0.0mm 0 W/m2
21:26 46.8 °F /  8.2 °C 45.7 °F /  7.6 °C 29.7in /  1004.7hPa Calm     96% 0in /  0.0mm 0 W/m2
21:31 46.8 °F /  8.2 °C 45.7 °F /  7.6 °C 29.7in /  1004.4hPa Calm   3mph /  4.8km/h 96% 0in /  0.0mm 0 W/m2
21:36 46.6 °F /  8.1 °C 45.9 °F /  7.7 °C 29.7in /  1004.4hPa Calm   1mph /  1.6km/h 97% 0in /  0.0mm 0 W/m2
21:41 46.6 °F /  8.1 °C 45.9 °F /  7.7 °C 29.7in /  1004.7hPa Calm   3mph /  4.8km/h 97% 0in /  0.0mm 0 W/m2
21:46 46.6 °F /  8.1 °C 45.9 °F /  7.7 °C 29.7in /  1004.4hPa Calm     97% 0in /  0.0mm 0 W/m2
21:51 46.6 °F /  8.1 °C 45.9 °F /  7.7 °C 29.7in /  1004.4hPa Calm   3mph /  4.8km/h 97% 0in /  0.0mm 0 W/m2
21:56 46.6 °F /  8.1 °C 45.9 °F /  7.7 °C 29.7in /  1004.4hPa Calm     97% 0in /  0.0mm 0 W/m2
22:01 46.6 °F /  8.1 °C 45.9 °F /  7.7 °C 29.7in /  1004.4hPa Calm     97% 0in /  0.0mm 0 W/m2
22:06 46.6 °F /  8.1 °C 45.9 °F /  7.7 °C 29.7in /  1004.4hPa Calm     97% 0in /  0.0mm 0 W/m2
22:11 46.6 °F /  8.1 °C 45.9 °F /  7.7 °C 29.7in /  1004.1hPa Calm     97% 0in /  0.0mm 0 W/m2
22:17 46.6 °F /  8.1 °C 45.9 °F /  7.7 °C 29.7in /  1004.1hPa Calm     97% 0in /  0.0mm 0 W/m2
22:22 46.4 °F /  8 °C 45.7 °F /  7.6 °C 29.7in /  1004.1hPa Calm     97% 0in /  0.0mm 0 W/m2
22:27 46.2 °F /  7.9 °C 45.5 °F /  7.5 °C 29.7in /  1004.1hPa Calm     97% 0in /  0.0mm 0 W/m2
22:32 46.2 °F /  7.9 °C 45.5 °F /  7.5 °C 29.7in /  1004.1hPa Calm     97% 0in /  0.0mm 0 W/m2
22:37 46.2 °F /  7.9 °C 45.5 °F /  7.5 °C 29.7in /  1004.1hPa Calm     97% 0in /  0.0mm 0 W/m2
22:42 46.2 °F /  7.9 °C 45.5 °F /  7.5 °C 29.7in /  1004.1hPa Calm     97% 0in /  0.0mm 0 W/m2
22:47 46 °F /  7.8 °C 45.3 °F /  7.4 °C 29.7in /  1004.1hPa Calm     97% 0in /  0.0mm 0 W/m2
22:52 46 °F /  7.8 °C 45.3 °F /  7.4 °C 29.7in /  1004.1hPa Calm     97% 0in /  0.0mm 0 W/m2
22:57 46 °F /  7.8 °C 45.3 °F /  7.4 °C 29.7in /  1004.1hPa Calm     97% 0in /  0.0mm 0 W/m2
23:02 46 °F /  7.8 °C 45.3 °F /  7.4 °C 29.7in /  1004.1hPa Calm     97% 0in /  0.0mm 0 W/m2
23:07 45.9 °F /  7.7 °C 45.1 °F /  7.3 °C 29.7in /  1004.1hPa Calm     97% 0in /  0.0mm 0 W/m2
23:12 45.9 °F /  7.7 °C 45.1 °F /  7.3 °C 29.7in /  1004.1hPa Calm     97% 0in /  0.0mm 0 W/m2
23:17 45.9 °F /  7.7 °C 45.1 °F /  7.3 °C 29.7in /  1004.1hPa Calm     97% 0in /  0.0mm 0 W/m2
23:22 45.9 °F /  7.7 °C 45.1 °F /  7.3 °C 29.6in /  1003.7hPa Calm     97% 0in /  0.0mm 0 W/m2
23:27 45.7 °F /  7.6 °C 45 °F /  7.2 °C 29.6in /  1003.7hPa Calm     97% 0in /  0.0mm 0 W/m2
23:32 45.7 °F /  7.6 °C 45 °F /  7.2 °C 29.6in /  1003.7hPa Calm     97% 0in /  0.0mm 0 W/m2
23:37 45.7 °F /  7.6 °C 45 °F /  7.2 °C 29.6in /  1003.7hPa Calm     97% 0in /  0.0mm 0 W/m2
23:42 45.9 °F /  7.7 °C 45.1 °F /  7.3 °C 29.6in /  1003.7hPa NW 2mph /  3.2km/h 2mph /  3.2km/h 97% 0in /  0.0mm 0 W/m2
23:47 45.9 °F /  7.7 °C 45.1 °F /  7.3 °C 29.6in /  1003.7hPa Calm   2mph /  3.2km/h 97% 0in /  0.0mm 0 W/m2
23:52 45.9 °F /  7.7 °C 45.1 °F /  7.3 °C 29.6in /  1003.7hPa Calm     97% 0in /  0.0mm 0 W/m2
23:57 45.9 °F /  7.7 °C 45.1 °F /  7.3 °C 29.6in /  1003.7hPa Calm   2mph /  3.2km/h 97% 0in /  0.0mm 0 W/m2
Juneau County Weather
Compliments of Weather Underground - 4 mb